Terminal Aerodrome Forecast
Issued by NWS

Home | Current Version | Previous Version | Text Only | Print | Product List | Glossary On
Versions: 1 2 3 4 5 6 7 8 9 10 11 12 13 14 15 16 17
000
FTUS45 KABQ 180536
TAFTCC
TAF
KTCC 180536Z 1806/1906 27007KT P6SM VCSH SCT020 BKN100
      TEMPO 1806/1808 5SM -RA BR OVC015
     FM180900 24006KT P6SM SCT009 OVC050
      TEMPO 1810/1814 4SM BR BKN009
     FM181500 24010KT P6SM BKN040
     FM182100 24013G20KT P6SM SCT060=

USA.gov is the U.S. government's official web portal to all federal, state and local government web resources and services.